sensor_id;sensor_type;location;lat;lon;timestamp;temperature;humidity
62555;DHT22;48610;52.144;8.624;2024-02-26T00:02:18;5.50;99.90
62555;DHT22;48610;52.144;8.624;2024-02-26T00:05:18;5.40;99.90
62555;DHT22;48610;52.144;8.624;2024-02-26T00:08:19;5.50;99.90
62555;DHT22;48610;52.144;8.624;2024-02-26T00:11:19;5.40;99.90
62555;DHT22;48610;52.144;8.624;2024-02-26T00:14:20;5.30;99.90
62555;DHT22;48610;52.144;8.624;2024-02-26T00:17:20;5.30;99.90
62555;DHT22;48610;52.144;8.624;2024-02-26T00:20:21;5.20;99.90
62555;DHT22;48610;52.144;8.624;2024-02-26T00:23:22;5.10;99.90
62555;DHT22;48610;52.144;8.624;2024-02-26T00:26:24;5.10;99.90
62555;DHT22;48610;52.144;8.624;2024-02-26T00:29:24;5.00;99.90
62555;DHT22;48610;52.144;8.624;2024-02-26T00:32:26;5.00;99.90
62555;DHT22;48610;52.144;8.624;2024-02-26T00:35:26;5.00;99.90
62555;DHT22;48610;52.144;8.624;2024-02-26T00:38:27;5.10;99.90
62555;DHT22;48610;52.144;8.624;2024-02-26T00:41:28;5.10;99.90
62555;DHT22;48610;52.144;8.624;2024-02-26T00:44:28;5.00;99.90
62555;DHT22;48610;52.144;8.624;2024-02-26T00:47:29;5.10;99.90
62555;DHT22;48610;52.144;8.624;2024-02-26T00:50:29;5.00;99.90
62555;DHT22;48610;52.144;8.624;2024-02-26T00:53:30;5.00;99.90
62555;DHT22;48610;52.144;8.624;2024-02-26T00:56:31;5.10;99.90
62555;DHT22;48610;52.144;8.624;2024-02-26T00:59:31;5.20;99.90
62555;DHT22;48610;52.144;8.624;2024-02-26T01:02:32;5.10;99.90
62555;DHT22;48610;52.144;8.624;2024-02-26T01:05:32;5.10;99.90
62555;DHT22;48610;52.144;8.624;2024-02-26T01:08:34;5.20;99.90
62555;DHT22;48610;52.144;8.624;2024-02-26T01:11:36;5.20;99.90
62555;DHT22;48610;52.144;8.624;2024-02-26T01:14:36;5.20;99.90
62555;DHT22;48610;52.144;8.624;2024-02-26T01:17:37;5.20;99.90
62555;DHT22;48610;52.144;8.624;2024-02-26T01:20:39;5.30;99.90
62555;DHT22;48610;52.144;8.624;2024-02-26T01:23:39;5.40;99.90
62555;DHT22;48610;52.144;8.624;2024-02-26T01:26:40;5.40;99.90
62555;DHT22;48610;52.144;8.624;2024-02-26T01:29:41;5.40;99.90
62555;DHT22;48610;52.144;8.624;2024-02-26T01:32:42;5.40;99.90
62555;DHT22;48610;52.144;8.624;2024-02-26T01:35:43;5.40;99.90
62555;DHT22;48610;52.144;8.624;2024-02-26T01:38:43;5.40;99.90
62555;DHT22;48610;52.144;8.624;2024-02-26T01:41:44;5.50;99.90
62555;DHT22;48610;52.144;8.624;2024-02-26T01:44:44;5.50;99.90
62555;DHT22;48610;52.144;8.624;2024-02-26T01:47:45;5.50;99.90
62555;DHT22;48610;52.144;8.624;2024-02-26T01:50:46;5.50;99.90
62555;DHT22;48610;52.144;8.624;2024-02-26T01:53:46;5.50;99.90
62555;DHT22;48610;52.144;8.624;2024-02-26T01:56:47;5.40;99.90
62555;DHT22;48610;52.144;8.624;2024-02-26T01:59:49;5.40;99.90
62555;DHT22;48610;52.144;8.624;2024-02-26T02:02:50;5.40;99.90
62555;DHT22;48610;52.144;8.624;2024-02-26T02:05:51;5.50;99.90
62555;DHT22;48610;52.144;8.624;2024-02-26T02:08:52;5.50;99.90
62555;DHT22;48610;52.144;8.624;2024-02-26T02:11:53;5.50;99.90
62555;DHT22;48610;52.144;8.624;2024-02-26T02:14:54;5.50;99.90
62555;DHT22;48610;52.144;8.624;2024-02-26T02:17:55;5.60;99.90
62555;DHT22;48610;52.144;8.624;2024-02-26T02:20:56;5.60;99.90
62555;DHT22;48610;52.144;8.624;2024-02-26T02:23:59;5.70;99.90
62555;DHT22;48610;52.144;8.624;2024-02-26T02:27:00;5.70;99.90
62555;DHT22;48610;52.144;8.624;2024-02-26T02:30:01;5.70;99.90
62555;DHT22;48610;52.144;8.624;2024-02-26T02:33:02;5.70;99.90
62555;DHT22;48610;52.144;8.624;2024-02-26T02:36:03;5.70;99.90
62555;DHT22;48610;52.144;8.624;2024-02-26T02:39:04;5.70;99.90
62555;DHT22;48610;52.144;8.624;2024-02-26T02:42:05;5.80;99.90
62555;DHT22;48610;52.144;8.624;2024-02-26T02:45:06;5.80;99.90
62555;DHT22;48610;52.144;8.624;2024-02-26T02:48:06;5.90;99.90
62555;DHT22;48610;52.144;8.624;2024-02-26T02:51:07;6.00;99.90
62555;DHT22;48610;52.144;8.624;2024-02-26T02:54:07;6.10;99.90
62555;DHT22;48610;52.144;8.624;2024-02-26T02:57:08;5.90;99.90
62555;DHT22;48610;52.144;8.624;2024-02-26T03:00:10;5.80;99.90
62555;DHT22;48610;52.144;8.624;2024-02-26T03:03:11;5.80;99.90
62555;DHT22;48610;52.144;8.624;2024-02-26T03:06:11;5.80;99.90
62555;DHT22;48610;52.144;8.624;2024-02-26T03:09:12;5.80;99.90
62555;DHT22;48610;52.144;8.624;2024-02-26T03:12:12;5.80;99.90
62555;DHT22;48610;52.144;8.624;2024-02-26T03:15:13;5.90;99.90
62555;DHT22;48610;52.144;8.624;2024-02-26T03:18:14;6.00;99.90
62555;DHT22;48610;52.144;8.624;2024-02-26T03:21:14;6.00;99.90
62555;DHT22;48610;52.144;8.624;2024-02-26T03:24:15;6.00;99.90
62555;DHT22;48610;52.144;8.624;2024-02-26T03:27:15;6.10;99.90
62555;DHT22;48610;52.144;8.624;2024-02-26T03:30:16;6.10;99.90
62555;DHT22;48610;52.144;8.624;2024-02-26T03:33:17;6.10;99.90
62555;DHT22;48610;52.144;8.624;2024-02-26T03:36:17;6.10;99.90
62555;DHT22;48610;52.144;8.624;2024-02-26T03:42:32;6.20;99.90
62555;DHT22;48610;52.144;8.624;2024-02-26T03:45:33;6.30;99.90
62555;DHT22;48610;52.144;8.624;2024-02-26T03:48:33;6.40;99.90
62555;DHT22;48610;52.144;8.624;2024-02-26T03:51:34;6.50;99.90
62555;DHT22;48610;52.144;8.624;2024-02-26T03:54:35;6.30;99.90
62555;DHT22;48610;52.144;8.624;2024-02-26T03:57:36;6.10;99.90
62555;DHT22;48610;52.144;8.624;2024-02-26T04:00:37;6.00;99.90
62555;DHT22;48610;52.144;8.624;2024-02-26T04:03:37;6.10;99.90
62555;DHT22;48610;52.144;8.624;2024-02-26T04:06:38;6.00;99.90
62555;DHT22;48610;52.144;8.624;2024-02-26T04:09:38;6.00;99.90
62555;DHT22;48610;52.144;8.624;2024-02-26T04:12:40;6.10;99.90
62555;DHT22;48610;52.144;8.624;2024-02-26T04:15:44;5.90;99.90
62555;DHT22;48610;52.144;8.624;2024-02-26T04:18:45;5.80;99.90
62555;DHT22;48610;52.144;8.624;2024-02-26T04:21:45;5.70;99.90
62555;DHT22;48610;52.144;8.624;2024-02-26T04:24:46;5.80;99.90
62555;DHT22;48610;52.144;8.624;2024-02-26T04:27:46;5.70;99.90
62555;DHT22;48610;52.144;8.624;2024-02-26T04:30:47;5.80;99.90
62555;DHT22;48610;52.144;8.624;2024-02-26T04:33:51;5.90;99.90
62555;DHT22;48610;52.144;8.624;2024-02-26T04:36:51;5.90;99.90
62555;DHT22;48610;52.144;8.624;2024-02-26T04:39:52;6.00;99.90
62555;DHT22;48610;52.144;8.624;2024-02-26T04:42:52;6.00;99.90
62555;DHT22;48610;52.144;8.624;2024-02-26T04:45:53;5.90;99.90
62555;DHT22;48610;52.144;8.624;2024-02-26T04:48:53;5.80;99.90
62555;DHT22;48610;52.144;8.624;2024-02-26T04:51:54;5.60;99.90
62555;DHT22;48610;52.144;8.624;2024-02-26T04:54:55;5.30;99.90
62555;DHT22;48610;52.144;8.624;2024-02-26T04:57:55;5.60;99.90
62555;DHT22;48610;52.144;8.624;2024-02-26T05:00:56;5.90;99.90
62555;DHT22;48610;52.144;8.624;2024-02-26T05:03:56;5.90;99.90
62555;DHT22;48610;52.144;8.624;2024-02-26T05:06:57;5.90;99.90
62555;DHT22;48610;52.144;8.624;2024-02-26T05:09:57;5.90;99.90
62555;DHT22;48610;52.144;8.624;2024-02-26T05:12:58;6.10;99.90
62555;DHT22;48610;52.144;8.624;2024-02-26T05:15:58;6.40;99.90
62555;DHT22;48610;52.144;8.624;2024-02-26T05:18:59;6.50;99.90
62555;DHT22;48610;52.144;8.624;2024-02-26T05:21:59;6.60;99.90
62555;DHT22;48610;52.144;8.624;2024-02-26T05:25:00;6.60;99.90
62555;DHT22;48610;52.144;8.624;2024-02-26T05:28:01;6.50;99.90
62555;DHT22;48610;52.144;8.624;2024-02-26T05:31:01;6.60;99.90
62555;DHT22;48610;52.144;8.624;2024-02-26T05:34:02;6.50;99.90
62555;DHT22;48610;52.144;8.624;2024-02-26T05:37:02;6.80;99.90
62555;DHT22;48610;52.144;8.624;2024-02-26T05:40:04;6.90;99.90
62555;DHT22;48610;52.144;8.624;2024-02-26T05:43:05;6.90;99.90
62555;DHT22;48610;52.144;8.624;2024-02-26T05:46:05;6.90;99.90
62555;DHT22;48610;52.144;8.624;2024-02-26T05:49:06;6.80;99.90
62555;DHT22;48610;52.144;8.624;2024-02-26T05:52:07;6.60;99.90
62555;DHT22;48610;52.144;8.624;2024-02-26T05:55:08;6.30;99.90
62555;DHT22;48610;52.144;8.624;2024-02-26T05:58:09;6.50;99.90
62555;DHT22;48610;52.144;8.624;2024-02-26T06:01:09;6.70;99.90
62555;DHT22;48610;52.144;8.624;2024-02-26T06:04:10;6.80;99.90
62555;DHT22;48610;52.144;8.624;2024-02-26T06:07:11;6.80;99.90
62555;DHT22;48610;52.144;8.624;2024-02-26T06:10:12;6.90;99.90
62555;DHT22;48610;52.144;8.624;2024-02-26T06:13:14;6.90;99.90
62555;DHT22;48610;52.144;8.624;2024-02-26T06:16:14;6.90;99.90
62555;DHT22;48610;52.144;8.624;2024-02-26T06:19:15;6.80;99.90
62555;DHT22;48610;52.144;8.624;2024-02-26T06:22:15;6.90;99.90
62555;DHT22;48610;52.144;8.624;2024-02-26T06:25:16;6.90;99.90
62555;DHT22;48610;52.144;8.624;2024-02-26T06:28:16;6.90;99.90
62555;DHT22;48610;52.144;8.624;2024-02-26T06:31:17;6.90;99.90
62555;DHT22;48610;52.144;8.624;2024-02-26T06:34:18;6.80;99.90
62555;DHT22;48610;52.144;8.624;2024-02-26T06:37:18;6.30;99.90
62555;DHT22;48610;52.144;8.624;2024-02-26T06:40:19;6.40;99.90
62555;DHT22;48610;52.144;8.624;2024-02-26T06:43:20;6.40;99.90
62555;DHT22;48610;52.144;8.624;2024-02-26T06:46:20;6.40;99.90
62555;DHT22;48610;52.144;8.624;2024-02-26T06:49:21;6.50;99.90
62555;DHT22;48610;52.144;8.624;2024-02-26T06:52:22;6.80;99.90
62555;DHT22;48610;52.144;8.624;2024-02-26T06:55:22;6.40;99.90
62555;DHT22;48610;52.144;8.624;2024-02-26T06:58:24;6.40;99.90
62555;DHT22;48610;52.144;8.624;2024-02-26T07:01:24;5.70;99.90
62555;DHT22;48610;52.144;8.624;2024-02-26T07:04:25;5.60;99.90
62555;DHT22;48610;52.144;8.624;2024-02-26T07:07:26;5.60;99.90
62555;DHT22;48610;52.144;8.624;2024-02-26T07:10:26;5.50;99.90
62555;DHT22;48610;52.144;8.624;2024-02-26T07:13:27;5.50;99.90
62555;DHT22;48610;52.144;8.624;2024-02-26T07:16:28;5.70;99.90
62555;DHT22;48610;52.144;8.624;2024-02-26T07:19:28;5.70;99.90
62555;DHT22;48610;52.144;8.624;2024-02-26T07:22:29;5.80;99.90
62555;DHT22;48610;52.144;8.624;2024-02-26T07:25:30;5.80;99.90
62555;DHT22;48610;52.144;8.624;2024-02-26T07:28:31;5.90;99.90
62555;DHT22;48610;52.144;8.624;2024-02-26T07:31:34;5.90;99.90
62555;DHT22;48610;52.144;8.624;2024-02-26T07:34:35;6.10;99.90
62555;DHT22;48610;52.144;8.624;2024-02-26T07:37:35;6.10;99.90
62555;DHT22;48610;52.144;8.624;2024-02-26T07:40:36;6.30;99.90
62555;DHT22;48610;52.144;8.624;2024-02-26T07:43:36;6.10;99.90
62555;DHT22;48610;52.144;8.624;2024-02-26T07:46:37;6.20;99.90
62555;DHT22;48610;52.144;8.624;2024-02-26T07:49:40;6.10;99.90
62555;DHT22;48610;52.144;8.624;2024-02-26T07:52:41;5.90;99.90
62555;DHT22;48610;52.144;8.624;2024-02-26T07:55:42;6.00;99.90
62555;DHT22;48610;52.144;8.624;2024-02-26T07:58:42;5.80;99.90
62555;DHT22;48610;52.144;8.624;2024-02-26T08:01:43;5.80;99.90
62555;DHT22;48610;52.144;8.624;2024-02-26T08:04:43;5.90;99.90
62555;DHT22;48610;52.144;8.624;2024-02-26T08:07:44;5.80;99.90
62555;DHT22;48610;52.144;8.624;2024-02-26T08:10:44;5.70;99.90
62555;DHT22;48610;52.144;8.624;2024-02-26T08:13:45;5.60;99.90
62555;DHT22;48610;52.144;8.624;2024-02-26T08:16:46;5.50;99.90
62555;DHT22;48610;52.144;8.624;2024-02-26T08:19:46;5.60;99.90
62555;DHT22;48610;52.144;8.624;2024-02-26T08:22:47;5.60;99.90
62555;DHT22;48610;52.144;8.624;2024-02-26T08:25:47;5.70;99.90
62555;DHT22;48610;52.144;8.624;2024-02-26T08:28:48;5.80;99.90
62555;DHT22;48610;52.144;8.624;2024-02-26T08:31:49;5.90;99.90
62555;DHT22;48610;52.144;8.624;2024-02-26T08:34:50;6.10;99.90
62555;DHT22;48610;52.144;8.624;2024-02-26T08:37:51;6.20;99.90
62555;DHT22;48610;52.144;8.624;2024-02-26T08:40:51;6.40;99.90
62555;DHT22;48610;52.144;8.624;2024-02-26T08:43:52;6.70;99.90
62555;DHT22;48610;52.144;8.624;2024-02-26T08:46:52;6.90;99.90
62555;DHT22;48610;52.144;8.624;2024-02-26T08:49:53;6.60;99.90
62555;DHT22;48610;52.144;8.624;2024-02-26T08:52:53;6.70;99.90
62555;DHT22;48610;52.144;8.624;2024-02-26T08:55:54;6.50;99.90
62555;DHT22;48610;52.144;8.624;2024-02-26T08:58:55;6.30;99.90
62555;DHT22;48610;52.144;8.624;2024-02-26T09:01:57;6.10;99.90
62555;DHT22;48610;52.144;8.624;2024-02-26T09:04:58;6.00;99.90
62555;DHT22;48610;52.144;8.624;2024-02-26T09:07:59;6.10;99.90
62555;DHT22;48610;52.144;8.624;2024-02-26T09:10:59;6.00;99.90
62555;DHT22;48610;52.144;8.624;2024-02-26T09:14:00;6.40;99.90
62555;DHT22;48610;52.144;8.624;2024-02-26T09:17:00;6.40;99.90
62555;DHT22;48610;52.144;8.624;2024-02-26T09:20:02;6.50;99.90
62555;DHT22;48610;52.144;8.624;2024-02-26T09:23:03;6.60;99.90
62555;DHT22;48610;52.144;8.624;2024-02-26T09:26:05;7.00;99.90
62555;DHT22;48610;52.144;8.624;2024-02-26T09:29:06;7.20;99.90
62555;DHT22;48610;52.144;8.624;2024-02-26T09:32:08;7.60;99.90
62555;DHT22;48610;52.144;8.624;2024-02-26T09:35:09;7.80;99.90
62555;DHT22;48610;52.144;8.624;2024-02-26T09:38:09;8.00;99.90
62555;DHT22;48610;52.144;8.624;2024-02-26T09:41:14;7.70;99.90
62555;DHT22;48610;52.144;8.624;2024-02-26T09:44:18;7.80;99.90
62555;DHT22;48610;52.144;8.624;2024-02-26T09:47:20;8.10;99.90
62555;DHT22;48610;52.144;8.624;2024-02-26T09:50:22;8.00;99.90
62555;DHT22;48610;52.144;8.624;2024-02-26T09:53:23;7.90;99.90
62555;DHT22;48610;52.144;8.624;2024-02-26T09:56:23;7.90;99.90
62555;DHT22;48610;52.144;8.624;2024-02-26T09:59:25;7.80;99.90
62555;DHT22;48610;52.144;8.624;2024-02-26T10:02:27;8.10;99.90
62555;DHT22;48610;52.144;8.624;2024-02-26T10:05:29;8.40;99.90
62555;DHT22;48610;52.144;8.624;2024-02-26T10:08:30;8.30;99.90
62555;DHT22;48610;52.144;8.624;2024-02-26T10:11:32;8.10;99.90
62555;DHT22;48610;52.144;8.624;2024-02-26T10:14:33;8.10;99.90
62555;DHT22;48610;52.144;8.624;2024-02-26T10:17:33;8.30;99.90
62555;DHT22;48610;52.144;8.624;2024-02-26T10:20:34;7.90;99.90
62555;DHT22;48610;52.144;8.624;2024-02-26T10:23:35;7.60;99.90
62555;DHT22;48610;52.144;8.624;2024-02-26T10:26:35;7.70;99.90
62555;DHT22;48610;52.144;8.624;2024-02-26T10:29:36;7.70;99.90
62555;DHT22;48610;52.144;8.624;2024-02-26T10:32:38;7.40;99.90
62555;DHT22;48610;52.144;8.624;2024-02-26T10:35:39;7.10;99.90
62555;DHT22;48610;52.144;8.624;2024-02-26T10:38:41;7.20;99.90
62555;DHT22;48610;52.144;8.624;2024-02-26T10:41:43;7.10;99.90
62555;DHT22;48610;52.144;8.624;2024-02-26T10:44:44;7.10;99.90
62555;DHT22;48610;52.144;8.624;2024-02-26T10:47:46;7.20;99.90
62555;DHT22;48610;52.144;8.624;2024-02-26T10:50:47;7.50;99.90
62555;DHT22;48610;52.144;8.624;2024-02-26T10:53:51;7.50;99.90
62555;DHT22;48610;52.144;8.624;2024-02-26T10:56:56;7.70;99.90
62555;DHT22;48610;52.144;8.624;2024-02-26T10:59:58;8.20;99.90
62555;DHT22;48610;52.144;8.624;2024-02-26T11:03:01;8.40;99.90
62555;DHT22;48610;52.144;8.624;2024-02-26T11:06:04;8.40;99.90
62555;DHT22;48610;52.144;8.624;2024-02-26T11:09:06;8.40;99.90
62555;DHT22;48610;52.144;8.624;2024-02-26T11:12:10;8.50;99.90
62555;DHT22;48610;52.144;8.624;2024-02-26T11:15:13;8.20;99.90
62555;DHT22;48610;52.144;8.624;2024-02-26T11:18:18;8.20;99.90
62555;DHT22;48610;52.144;8.624;2024-02-26T11:21:20;7.60;99.90
62555;DHT22;48610;52.144;8.624;2024-02-26T11:24:31;7.60;99.90
62555;DHT22;48610;52.144;8.624;2024-02-26T11:27:55;7.50;99.90
62555;DHT22;48610;52.144;8.624;2024-02-26T11:30:59;7.50;99.90
62555;DHT22;48610;52.144;8.624;2024-02-26T11:34:01;7.80;99.90
62555;DHT22;48610;52.144;8.624;2024-02-26T11:37:15;7.60;99.90
62555;DHT22;48610;52.144;8.624;2024-02-26T11:40:17;7.50;99.90
62555;DHT22;48610;52.144;8.624;2024-02-26T11:43:23;7.70;99.90
62555;DHT22;48610;52.144;8.624;2024-02-26T11:46:31;7.70;99.90
62555;DHT22;48610;52.144;8.624;2024-02-26T11:49:32;7.80;99.90
62555;DHT22;48610;52.144;8.624;2024-02-26T11:52:33;7.70;99.90
62555;DHT22;48610;52.144;8.624;2024-02-26T11:55:33;7.90;99.90
62555;DHT22;48610;52.144;8.624;2024-02-26T11:58:34;7.90;99.90
62555;DHT22;48610;52.144;8.624;2024-02-26T12:01:45;7.80;99.90
62555;DHT22;48610;52.144;8.624;2024-02-26T12:04:49;8.00;99.90
62555;DHT22;48610;52.144;8.624;2024-02-26T12:07:53;8.20;99.90
62555;DHT22;48610;52.144;8.624;2024-02-26T12:10:54;8.40;99.90
62555;DHT22;48610;52.144;8.624;2024-02-26T12:13:56;8.50;99.90
62555;DHT22;48610;52.144;8.624;2024-02-26T12:16:57;8.60;99.90
62555;DHT22;48610;52.144;8.624;2024-02-26T12:20:09;8.40;99.90
62555;DHT22;48610;52.144;8.624;2024-02-26T12:23:17;8.10;99.90
62555;DHT22;48610;52.144;8.624;2024-02-26T12:26:18;7.90;99.90
62555;DHT22;48610;52.144;8.624;2024-02-26T12:29:19;7.90;99.90
62555;DHT22;48610;52.144;8.624;2024-02-26T12:32:19;7.80;99.90
62555;DHT22;48610;52.144;8.624;2024-02-26T12:35:20;7.80;99.90
62555;DHT22;48610;52.144;8.624;2024-02-26T12:38:21;7.80;99.90
62555;DHT22;48610;52.144;8.624;2024-02-26T12:41:22;8.00;99.90
62555;DHT22;48610;52.144;8.624;2024-02-26T12:44:26;7.80;99.90
62555;DHT22;48610;52.144;8.624;2024-02-26T12:47:27;7.80;99.90
62555;DHT22;48610;52.144;8.624;2024-02-26T12:50:27;7.70;99.90
62555;DHT22;48610;52.144;8.624;2024-02-26T12:53:28;7.80;99.90
62555;DHT22;48610;52.144;8.624;2024-02-26T12:56:30;8.10;99.90
62555;DHT22;48610;52.144;8.624;2024-02-26T12:59:31;8.10;99.90
62555;DHT22;48610;52.144;8.624;2024-02-26T13:02:32;8.00;99.90
62555;DHT22;48610;52.144;8.624;2024-02-26T13:05:34;8.00;99.90
62555;DHT22;48610;52.144;8.624;2024-02-26T13:08:35;7.90;99.90
62555;DHT22;48610;52.144;8.624;2024-02-26T13:11:36;7.80;99.90
62555;DHT22;48610;52.144;8.624;2024-02-26T13:14:39;7.70;99.90
62555;DHT22;48610;52.144;8.624;2024-02-26T13:17:40;7.70;99.90
62555;DHT22;48610;52.144;8.624;2024-02-26T13:20:41;7.70;99.90
62555;DHT22;48610;52.144;8.624;2024-02-26T13:23:42;7.70;99.90
62555;DHT22;48610;52.144;8.624;2024-02-26T13:26:43;7.70;99.90
62555;DHT22;48610;52.144;8.624;2024-02-26T13:29:44;7.70;99.90
62555;DHT22;48610;52.144;8.624;2024-02-26T13:32:44;7.80;99.90
62555;DHT22;48610;52.144;8.624;2024-02-26T13:35:47;7.80;99.90
62555;DHT22;48610;52.144;8.624;2024-02-26T13:38:54;7.80;99.90
62555;DHT22;48610;52.144;8.624;2024-02-26T13:41:55;7.80;99.90
62555;DHT22;48610;52.144;8.624;2024-02-26T13:44:57;7.90;99.90
62555;DHT22;48610;52.144;8.624;2024-02-26T13:48:02;8.10;99.90
62555;DHT22;48610;52.144;8.624;2024-02-26T13:51:03;8.00;99.90
62555;DHT22;48610;52.144;8.624;2024-02-26T13:54:04;8.00;99.90
62555;DHT22;48610;52.144;8.624;2024-02-26T13:57:05;8.00;99.90
62555;DHT22;48610;52.144;8.624;2024-02-26T14:00:08;8.10;99.90
62555;DHT22;48610;52.144;8.624;2024-02-26T14:03:10;7.90;99.90
62555;DHT22;48610;52.144;8.624;2024-02-26T14:06:11;8.20;99.90
62555;DHT22;48610;52.144;8.624;2024-02-26T14:09:11;8.30;99.90
62555;DHT22;48610;52.144;8.624;2024-02-26T14:12:19;8.40;99.90
62555;DHT22;48610;52.144;8.624;2024-02-26T14:15:19;8.20;99.90
62555;DHT22;48610;52.144;8.624;2024-02-26T14:18:20;8.10;99.90
62555;DHT22;48610;52.144;8.624;2024-02-26T14:21:20;8.00;99.90
62555;DHT22;48610;52.144;8.624;2024-02-26T14:24:21;8.20;99.90
62555;DHT22;48610;52.144;8.624;2024-02-26T14:27:21;8.30;99.90
62555;DHT22;48610;52.144;8.624;2024-02-26T14:30:22;8.30;99.90
62555;DHT22;48610;52.144;8.624;2024-02-26T14:33:23;8.30;99.90
62555;DHT22;48610;52.144;8.624;2024-02-26T14:36:24;8.30;99.90
62555;DHT22;48610;52.144;8.624;2024-02-26T14:39:25;8.30;99.90
62555;DHT22;48610;52.144;8.624;2024-02-26T14:42:26;8.20;99.90
62555;DHT22;48610;52.144;8.624;2024-02-26T14:45:26;8.30;99.90
62555;DHT22;48610;52.144;8.624;2024-02-26T14:48:27;8.40;99.90
62555;DHT22;48610;52.144;8.624;2024-02-26T14:51:29;8.50;99.90
62555;DHT22;48610;52.144;8.624;2024-02-26T14:54:30;8.40;99.90
62555;DHT22;48610;52.144;8.624;2024-02-26T14:57:37;8.30;99.90
62555;DHT22;48610;52.144;8.624;2024-02-26T15:00:40;8.30;99.90
62555;DHT22;48610;52.144;8.624;2024-02-26T15:03:41;8.30;99.90
62555;DHT22;48610;52.144;8.624;2024-02-26T15:06:42;8.30;99.90
62555;DHT22;48610;52.144;8.624;2024-02-26T15:09:42;8.30;99.90
62555;DHT22;48610;52.144;8.624;2024-02-26T15:12:43;8.40;99.90
62555;DHT22;48610;52.144;8.624;2024-02-26T15:15:44;8.40;99.90
62555;DHT22;48610;52.144;8.624;2024-02-26T15:18:44;8.40;99.90
62555;DHT22;48610;52.144;8.624;2024-02-26T15:21:45;8.40;99.90
62555;DHT22;48610;52.144;8.624;2024-02-26T15:24:46;8.40;99.90
62555;DHT22;48610;52.144;8.624;2024-02-26T15:27:47;8.40;99.90
62555;DHT22;48610;52.144;8.624;2024-02-26T15:30:48;8.40;99.90
62555;DHT22;48610;52.144;8.624;2024-02-26T15:33:48;8.40;99.90
62555;DHT22;48610;52.144;8.624;2024-02-26T15:36:49;8.50;99.90
62555;DHT22;48610;52.144;8.624;2024-02-26T15:39:49;8.30;99.90
62555;DHT22;48610;52.144;8.624;2024-02-26T15:42:50;8.20;99.90
62555;DHT22;48610;52.144;8.624;2024-02-26T15:45:51;8.30;99.90
62555;DHT22;48610;52.144;8.624;2024-02-26T15:48:52;8.20;99.90
62555;DHT22;48610;52.144;8.624;2024-02-26T15:51:52;8.40;99.90
62555;DHT22;48610;52.144;8.624;2024-02-26T15:54:53;8.30;99.90
62555;DHT22;48610;52.144;8.624;2024-02-26T15:57:54;8.30;99.90
62555;DHT22;48610;52.144;8.624;2024-02-26T16:00:54;8.30;99.90
62555;DHT22;48610;52.144;8.624;2024-02-26T16:03:55;8.20;99.90
62555;DHT22;48610;52.144;8.624;2024-02-26T16:06:59;8.10;99.90
62555;DHT22;48610;52.144;8.624;2024-02-26T16:10:01;8.10;99.90
62555;DHT22;48610;52.144;8.624;2024-02-26T16:13:04;8.00;99.90
62555;DHT22;48610;52.144;8.624;2024-02-26T16:16:10;8.10;99.90
62555;DHT22;48610;52.144;8.624;2024-02-26T16:19:13;8.10;99.90
62555;DHT22;48610;52.144;8.624;2024-02-26T16:22:16;8.20;99.90
62555;DHT22;48610;52.144;8.624;2024-02-26T16:25:17;8.00;99.90
62555;DHT22;48610;52.144;8.624;2024-02-26T16:28:18;8.10;99.90
62555;DHT22;48610;52.144;8.624;2024-02-26T16:31:21;8.00;99.90
62555;DHT22;48610;52.144;8.624;2024-02-26T16:34:22;8.10;99.90
62555;DHT22;48610;52.144;8.624;2024-02-26T16:37:23;8.10;99.90
62555;DHT22;48610;52.144;8.624;2024-02-26T16:40:23;8.20;99.90
62555;DHT22;48610;52.144;8.624;2024-02-26T16:43:24;8.20;99.90
62555;DHT22;48610;52.144;8.624;2024-02-26T16:46:24;8.10;99.90
62555;DHT22;48610;52.144;8.624;2024-02-26T16:49:25;8.10;99.90
62555;DHT22;48610;52.144;8.624;2024-02-26T16:52:25;8.00;99.90
62555;DHT22;48610;52.144;8.624;2024-02-26T16:55:26;8.00;99.90
62555;DHT22;48610;52.144;8.624;2024-02-26T16:58:28;7.90;99.90
62555;DHT22;48610;52.144;8.624;2024-02-26T17:01:28;8.00;99.90
62555;DHT22;48610;52.144;8.624;2024-02-26T17:04:29;7.90;99.90
62555;DHT22;48610;52.144;8.624;2024-02-26T17:07:29;8.00;99.90
62555;DHT22;48610;52.144;8.624;2024-02-26T17:10:30;8.00;99.90
62555;DHT22;48610;52.144;8.624;2024-02-26T17:13:30;8.00;99.90
62555;DHT22;48610;52.144;8.624;2024-02-26T17:16:31;7.90;99.90
62555;DHT22;48610;52.144;8.624;2024-02-26T17:19:32;8.00;99.90
62555;DHT22;48610;52.144;8.624;2024-02-26T17:22:33;8.00;99.90
62555;DHT22;48610;52.144;8.624;2024-02-26T17:25:33;8.00;99.90
62555;DHT22;48610;52.144;8.624;2024-02-26T17:28:36;8.00;99.90
62555;DHT22;48610;52.144;8.624;2024-02-26T17:31:40;7.90;99.90
62555;DHT22;48610;52.144;8.624;2024-02-26T17:34:42;8.00;99.90
62555;DHT22;48610;52.144;8.624;2024-02-26T17:37:43;8.00;99.90
62555;DHT22;48610;52.144;8.624;2024-02-26T17:40:44;8.00;99.90
62555;DHT22;48610;52.144;8.624;2024-02-26T17:43:45;8.00;99.90
62555;DHT22;48610;52.144;8.624;2024-02-26T17:46:45;8.00;99.90
62555;DHT22;48610;52.144;8.624;2024-02-26T17:49:46;8.00;99.90
62555;DHT22;48610;52.144;8.624;2024-02-26T17:52:46;8.00;99.90
62555;DHT22;48610;52.144;8.624;2024-02-26T17:55:50;7.90;99.90
62555;DHT22;48610;52.144;8.624;2024-02-26T17:58:50;8.00;99.90
62555;DHT22;48610;52.144;8.624;2024-02-26T18:01:51;8.00;99.90
62555;DHT22;48610;52.144;8.624;2024-02-26T18:04:51;8.30;99.90
62555;DHT22;48610;52.144;8.624;2024-02-26T18:07:52;8.20;99.90
62555;DHT22;48610;52.144;8.624;2024-02-26T18:10:53;8.10;99.90
62555;DHT22;48610;52.144;8.624;2024-02-26T18:13:53;8.10;99.90
62555;DHT22;48610;52.144;8.624;2024-02-26T18:16:54;8.00;99.90
62555;DHT22;48610;52.144;8.624;2024-02-26T18:19:54;8.00;99.90
62555;DHT22;48610;52.144;8.624;2024-02-26T18:22:55;8.00;99.90
62555;DHT22;48610;52.144;8.624;2024-02-26T18:25:56;8.00;99.90
62555;DHT22;48610;52.144;8.624;2024-02-26T18:28:56;7.90;99.90
62555;DHT22;48610;52.144;8.624;2024-02-26T18:31:57;8.00;99.90
62555;DHT22;48610;52.144;8.624;2024-02-26T18:35:01;7.90;99.90
62555;DHT22;48610;52.144;8.624;2024-02-26T18:38:02;8.00;99.90
62555;DHT22;48610;52.144;8.624;2024-02-26T18:41:03;7.90;99.90
62555;DHT22;48610;52.144;8.624;2024-02-26T18:44:04;7.80;99.90
62555;DHT22;48610;52.144;8.624;2024-02-26T18:47:05;7.70;99.90
62555;DHT22;48610;52.144;8.624;2024-02-26T18:50:06;7.80;99.90
62555;DHT22;48610;52.144;8.624;2024-02-26T18:53:08;7.70;99.90
62555;DHT22;48610;52.144;8.624;2024-02-26T18:56:08;7.90;99.90
62555;DHT22;48610;52.144;8.624;2024-02-26T18:59:09;7.90;99.90
62555;DHT22;48610;52.144;8.624;2024-02-26T19:02:15;7.90;99.90
62555;DHT22;48610;52.144;8.624;2024-02-26T19:05:15;7.90;99.90
62555;DHT22;48610;52.144;8.624;2024-02-26T19:08:17;7.80;99.90
62555;DHT22;48610;52.144;8.624;2024-02-26T19:11:18;7.90;99.90
62555;DHT22;48610;52.144;8.624;2024-02-26T19:14:20;7.90;99.90
62555;DHT22;48610;52.144;8.624;2024-02-26T19:17:21;7.90;99.90
62555;DHT22;48610;52.144;8.624;2024-02-26T19:20:22;8.20;99.90
62555;DHT22;48610;52.144;8.624;2024-02-26T19:23:23;8.10;99.90
62555;DHT22;48610;52.144;8.624;2024-02-26T19:26:23;8.00;99.90